createdAt,value
2022-12-26T00:03:19.379Z,11.05
2022-12-26T00:08:21.505Z,13.82
2022-12-26T00:13:39.466Z,11.85
2022-12-26T00:18:42.609Z,10.77
2022-12-26T00:23:45.237Z,9.82
2022-12-26T00:28:46.254Z,9.82
2022-12-26T00:33:47.709Z,11.80
2022-12-26T00:38:50.893Z,10.63
2022-12-26T00:43:52.295Z,10.20
2022-12-26T00:48:53.136Z,11.10
2022-12-26T00:53:55.167Z,13.80
2022-12-26T00:58:55.893Z,11.05
2022-12-26T01:03:58.779Z,10.32
2022-12-26T01:09:00.943Z,15.75
2022-12-26T01:14:01.603Z,15.75
2022-12-26T01:19:02.286Z,12.75
2022-12-26T01:24:04.679Z,13.88
2022-12-26T01:29:05.386Z,12.82
2022-12-26T01:34:06.047Z,12.52
2022-12-26T01:39:08.055Z,11.77
2022-12-26T01:44:47.405Z,12.35
2022-12-26T01:49:51.643Z,12.90
2022-12-26T01:54:55.916Z,14.13
2022-12-26T01:59:58.986Z,12.88
2022-12-26T02:05:17.089Z,13.63
2022-12-26T02:10:25.627Z,10.30
2022-12-26T02:15:26.970Z,11.88
2022-12-26T02:20:30.146Z,13.57
2022-12-26T02:25:51.506Z,10.55
2022-12-26T02:30:58.208Z,14.90
2022-12-26T02:36:15.847Z,10.45
2022-12-26T02:41:26.754Z,14.48
2022-12-26T02:46:51.399Z,12.77
2022-12-26T02:52:18.853Z,14.75
2022-12-26T02:57:42.541Z,11.43
2022-12-26T03:03:08.012Z,13.63
2022-12-26T03:08:31.315Z,14.32
2022-12-26T03:13:37.134Z,12.38
2022-12-26T03:18:57.881Z,11.63
2022-12-26T03:24:00.817Z,14.73
2022-12-26T03:29:18.874Z,12.90
2022-12-26T03:34:21.370Z,11.23
2022-12-26T03:39:54.087Z,15.10
2022-12-26T03:45:19.065Z,13.85
2022-12-26T03:51:02.473Z,13.07
2022-12-26T03:56:26.628Z,10.32
2022-12-26T04:01:48.432Z,8.98
2022-12-26T04:07:11.666Z,13.13
2022-12-26T04:12:36.210Z,9.57
2022-12-26T04:18:06.082Z,10.45
2022-12-26T04:23:32.350Z,13.25
2022-12-26T04:28:50.957Z,16.73
2022-12-26T04:34:12.179Z,12.05
2022-12-26T04:39:35.395Z,11.52
2022-12-26T04:44:37.892Z,10.50
2022-12-26T04:50:01.725Z,9.25
2022-12-26T04:55:03.908Z,7.10
2022-12-26T05:00:06.254Z,2.67
2022-12-26T05:05:25.015Z,2.75
2022-12-26T05:10:28.971Z,3.45
2022-12-26T05:15:49.716Z,2.17
2022-12-26T05:21:07.952Z,5.72
2022-12-26T05:26:33.998Z,4.55
2022-12-26T05:31:36.876Z,2.63
2022-12-26T05:36:40.720Z,4.90
2022-12-26T05:41:42.876Z,2.33
2022-12-26T05:46:43.695Z,6.53
2022-12-26T05:51:44.369Z,4.32
2022-12-26T05:56:49.509Z,4.65
2022-12-26T06:01:50.489Z,9.68
2022-12-26T06:06:52.283Z,5.30
2022-12-26T06:11:54.272Z,6.13
2022-12-26T06:16:55.105Z,4.00
2022-12-26T06:21:55.839Z,2.78
2022-12-26T06:26:57.816Z,4.35
2022-12-26T06:31:58.562Z,2.72
2022-12-26T06:36:59.512Z,3.75
2022-12-26T06:42:01.526Z,6.22
2022-12-26T06:47:03.206Z,2.90
2022-12-26T06:52:03.986Z,5.38
2022-12-26T06:57:06.232Z,3.80
2022-12-26T07:02:07.348Z,2.03
2022-12-26T07:07:08.100Z,6.78
2022-12-26T07:12:10.112Z,3.05
2022-12-26T07:17:11.261Z,4.13
2022-12-26T07:22:11.927Z,3.75
2022-12-26T07:27:13.951Z,5.47
2022-12-26T07:32:14.726Z,8.95
2022-12-26T07:37:15.471Z,3.85
2022-12-26T07:42:17.474Z,4.75
2022-12-26T07:47:18.129Z,4.30
2022-12-26T07:52:19.913Z,3.22
2022-12-26T07:57:47.332Z,6.05
2022-12-26T08:02:42.714Z,3.45
2022-12-26T08:07:43.491Z,3.63
2022-12-26T08:12:45.522Z,3.78
2022-12-26T08:17:46.235Z,1.80
2022-12-26T08:22:46.963Z,6.00
2022-12-26T08:27:49.031Z,5.30
2022-12-26T08:32:51.546Z,3.67
2022-12-26T08:37:52.197Z,6.63
2022-12-26T08:43:12.217Z,4.07
2022-12-26T08:48:16.023Z,5.85
2022-12-26T08:53:16.758Z,3.10
2022-12-26T08:58:18.806Z,5.25
2022-12-26T09:03:20.604Z,4.00
2022-12-26T09:08:21.361Z,4.65
2022-12-26T09:13:23.858Z,7.45
2022-12-26T09:18:24.812Z,1.25
2022-12-26T09:23:25.485Z,1.88
2022-12-26T09:28:27.643Z,7.57
2022-12-26T09:33:28.377Z,3.80
2022-12-26T09:38:30.176Z,7.22
2022-12-26T09:43:54.050Z,3.70
2022-12-26T09:49:00.238Z,3.80
2022-12-26T09:54:04.939Z,3.42
2022-12-26T09:59:14.433Z,4.00
2022-12-26T10:04:28.898Z,5.15
2022-12-26T10:09:51.743Z,4.13
2022-12-26T10:15:00.131Z,5.88
2022-12-26T10:20:13.392Z,1.75
2022-12-26T10:25:19.337Z,4.03
2022-12-26T10:30:24.609Z,3.63
2022-12-26T10:35:32.128Z,4.65
2022-12-26T10:40:41.792Z,3.03
2022-12-26T10:45:50.335Z,4.78
2022-12-26T10:50:51.261Z,4.30
2022-12-26T10:55:52.020Z,5.53
2022-12-26T11:00:54.124Z,3.20
2022-12-26T11:06:07.551Z,3.17
2022-12-26T11:11:14.073Z,2.78
2022-12-26T11:16:26.504Z,2.72
2022-12-26T11:21:29.372Z,3.08
2022-12-26T11:26:30.600Z,5.03
2022-12-26T11:31:33.090Z,3.72
2022-12-26T11:36:34.317Z,3.22
2022-12-26T11:41:39.913Z,3.90
2022-12-26T11:46:47.042Z,2.78
2022-12-26T11:51:54.144Z,4.90
2022-12-26T11:57:11.942Z,2.80
2022-12-26T12:02:29.441Z,1.98
2022-12-26T12:07:41.386Z,2.55
2022-12-26T12:12:48.337Z,2.15
2022-12-26T12:17:59.959Z,4.15
2022-12-26T12:23:21.551Z,2.95
2022-12-26T12:28:52.863Z,3.28
2022-12-26T12:34:03.494Z,7.90
2022-12-26T12:39:13.906Z,3.30
2022-12-26T12:44:23.006Z,4.88
2022-12-26T12:49:38.964Z,2.22
2022-12-26T12:55:19.783Z,1.25
2022-12-26T13:00:23.647Z,3.42
2022-12-26T13:05:39.346Z,2.25
2022-12-26T13:10:49.470Z,2.95
2022-12-26T13:15:55.528Z,1.55
2022-12-26T13:21:01.972Z,2.22
2022-12-26T13:26:10.595Z,2.45
2022-12-26T13:31:11.537Z,1.50
2022-12-26T13:36:38.133Z,6.30
2022-12-26T13:41:58.542Z,2.60
2022-12-26T13:47:00.767Z,4.55
2022-12-26T13:52:32.332Z,0.77
2022-12-26T13:57:40.204Z,3.03
2022-12-26T14:03:19.453Z,1.45
2022-12-26T14:08:33.268Z,4.43
2022-12-26T14:13:52.470Z,4.50
2022-12-26T14:19:01.658Z,1.95
2022-12-26T14:24:18.280Z,2.17
2022-12-26T14:29:26.050Z,1.63
2022-12-26T14:34:40.206Z,3.20
2022-12-26T14:39:58.642Z,2.40
2022-12-26T14:45:01.450Z,2.85
2022-12-26T14:50:35.865Z,3.47
2022-12-26T14:55:52.266Z,3.75
2022-12-26T15:00:54.306Z,4.38
2022-12-26T15:06:02.658Z,2.13
2022-12-26T15:11:52.881Z,3.53
2022-12-26T15:17:16.001Z,2.65
2022-12-26T15:22:46.064Z,2.25
2022-12-26T15:28:23.619Z,2.45
2022-12-26T15:33:32.781Z,2.28
2022-12-26T15:38:41.356Z,2.55
2022-12-26T15:44:02.608Z,2.75
2022-12-26T15:49:32.888Z,2.28
2022-12-26T15:55:03.025Z,3.05
2022-12-26T16:00:13.596Z,3.60
2022-12-26T16:05:34.565Z,2.50
2022-12-26T16:10:36.814Z,4.20
2022-12-26T16:15:46.547Z,20.88
2022-12-26T16:21:09.146Z,4.55
2022-12-26T16:26:18.472Z,3.67
2022-12-26T16:31:22.253Z,3.08
2022-12-26T16:36:26.339Z,4.63
2022-12-26T16:41:29.367Z,4.60
2022-12-26T16:46:31.845Z,4.47
2022-12-26T16:51:41.472Z,4.40
2022-12-26T16:56:42.631Z,4.32
2022-12-26T17:01:47.771Z,5.00
2022-12-26T17:06:53.181Z,5.10
2022-12-26T17:11:57.078Z,4.78
2022-12-26T17:16:59.476Z,6.88
2022-12-26T17:22:21.408Z,3.97
2022-12-26T17:27:24.280Z,6.05
2022-12-26T17:32:34.979Z,5.65
2022-12-26T17:37:37.576Z,3.72
2022-12-26T17:42:45.434Z,3.83
2022-12-26T17:47:46.606Z,6.13
2022-12-26T17:52:49.314Z,2.50
2022-12-26T17:57:50.024Z,1.92
2022-12-26T18:02:50.913Z,3.78
2022-12-26T18:07:53.543Z,3.30
2022-12-26T18:12:54.354Z,3.05
2022-12-26T18:17:55.374Z,3.85
2022-12-26T18:22:58.065Z,1.63
2022-12-26T18:28:00.436Z,3.22
2022-12-26T18:33:01.135Z,3.40
2022-12-26T18:38:03.285Z,2.08
2022-12-26T18:43:05.277Z,1.25
2022-12-26T18:48:07.713Z,2.25
2022-12-26T18:53:09.786Z,2.53
2022-12-26T18:58:11.309Z,2.85
2022-12-26T19:03:12.051Z,1.80
2022-12-26T19:08:14.091Z,2.13
2022-12-26T19:13:15.662Z,1.38
2022-12-26T19:18:16.760Z,3.33
2022-12-26T19:23:18.799Z,2.58
2022-12-26T19:28:19.512Z,3.63
2022-12-26T19:33:20.230Z,1.38
2022-12-26T19:38:22.272Z,2.47
2022-12-26T19:43:22.939Z,0.98
2022-12-26T19:48:23.688Z,1.55
2022-12-26T19:53:25.716Z,2.28
2022-12-26T19:58:30.912Z,0.40
2022-12-26T20:03:31.610Z,0.73
2022-12-26T20:08:33.698Z,0.90
2022-12-26T20:13:35.111Z,2.00
2022-12-26T20:18:36.497Z,1.55
2022-12-26T20:23:38.591Z,0.60
2022-12-26T20:28:40.194Z,2.53
2022-12-26T20:33:43.358Z,3.40
2022-12-26T20:38:46.307Z,1.25
2022-12-26T20:43:48.658Z,1.55
2022-12-26T20:48:49.963Z,1.42
2022-12-26T20:53:52.577Z,2.05
2022-12-26T20:58:53.400Z,1.00
2022-12-26T21:03:55.617Z,1.20
2022-12-26T21:08:58.222Z,2.08
2022-12-26T21:14:01.188Z,1.92
2022-12-26T21:19:02.308Z,1.98
2022-12-26T21:24:07.330Z,2.95
2022-12-26T21:29:09.863Z,2.38
2022-12-26T21:34:13.471Z,10.70
2022-12-26T21:39:15.813Z,8.55
2022-12-26T21:44:16.656Z,3.38
2022-12-26T21:49:17.352Z,2.83
2022-12-26T21:54:40.023Z,4.65
2022-12-26T21:59:58.116Z,5.50
2022-12-26T22:04:59.389Z,7.43
2022-12-26T22:10:01.497Z,5.05
2022-12-26T22:15:02.294Z,4.55
2022-12-26T22:20:02.988Z,3.10
2022-12-26T22:25:05.678Z,4.22
2022-12-26T22:30:07.112Z,5.55
2022-12-26T22:35:13.239Z,6.25
2022-12-26T22:40:18.739Z,7.15
2022-12-26T22:45:19.513Z,7.00
2022-12-26T22:50:20.192Z,11.32
2022-12-26T22:55:22.213Z,4.88
2022-12-26T23:00:22.879Z,16.50
2022-12-26T23:05:24.138Z,8.15
2022-12-26T23:10:27.128Z,6.57
2022-12-26T23:15:29.724Z,6.97
2022-12-26T23:20:53.250Z,6.63
2022-12-26T23:25:55.245Z,5.13
2022-12-26T23:30:57.101Z,7.00
2022-12-26T23:35:58.099Z,6.13
2022-12-26T23:41:00.158Z,9.20
2022-12-26T23:46:01.395Z,9.75
2022-12-26T23:51:03.433Z,11.02
2022-12-26T23:56:08.341Z,11.90
